createdAt,value
2023-03-28T00:01:51.250Z,100886.00
2023-03-28T00:04:23.020Z,100887.00
2023-03-28T00:06:55.736Z,100890.00
2023-03-28T00:09:25.960Z,100892.00
2023-03-28T00:11:55.779Z,100875.00
2023-03-28T00:14:25.725Z,100868.00
2023-03-28T00:16:55.487Z,100879.00
2023-03-28T00:19:25.248Z,100887.00
2023-03-28T00:21:57.651Z,100884.00
2023-03-28T00:24:28.130Z,100890.00
2023-03-28T00:27:00.587Z,100900.00
2023-03-28T00:29:30.395Z,100901.00
2023-03-28T00:32:00.764Z,100907.00
2023-03-28T00:34:30.535Z,100907.00
2023-03-28T00:37:03.235Z,100913.00
2023-03-28T00:39:33.020Z,100922.00
2023-03-28T00:42:04.300Z,100930.00
2023-03-28T00:44:47.515Z,100926.00
2023-03-28T00:47:27.484Z,100931.00
2023-03-28T00:49:59.997Z,100945.00
2023-03-28T00:52:35.530Z,100950.00
2023-03-28T00:55:06.564Z,100954.00
2023-03-28T00:57:38.412Z,100960.00
2023-03-28T01:00:12.428Z,100957.00
2023-03-28T01:02:45.937Z,100959.00
2023-03-28T01:05:16.842Z,100966.00
2023-03-28T01:07:51.867Z,100974.00
2023-03-28T01:10:22.447Z,100956.00
2023-03-28T01:12:53.305Z,100963.00
2023-03-28T01:15:23.136Z,100964.00
2023-03-28T01:17:53.492Z,100970.00
2023-03-28T01:20:41.822Z,100971.00
2023-03-28T01:23:48.991Z,100974.00
2023-03-28T01:26:42.588Z,100974.00
2023-03-28T01:29:24.662Z,100988.00
2023-03-28T01:32:18.923Z,100987.00
2023-03-28T01:35:03.806Z,100985.00
2023-03-28T01:37:42.063Z,100995.00
2023-03-28T01:40:26.301Z,100991.00
2023-03-28T01:43:06.088Z,101010.00
2023-03-28T01:45:43.316Z,101003.00
2023-03-28T01:48:20.947Z,101008.00
2023-03-28T01:50:53.668Z,101007.00
2023-03-28T01:53:32.964Z,101009.00
2023-03-28T01:56:06.117Z,101023.00
2023-03-28T01:58:42.132Z,101022.00
2023-03-28T02:01:15.820Z,101025.00
2023-03-28T02:03:48.468Z,101013.00
2023-03-28T02:06:21.247Z,101027.00
2023-03-28T02:08:55.574Z,101028.00
2023-03-28T02:11:25.855Z,101039.00
2023-03-28T02:13:59.199Z,101040.00
2023-03-28T02:16:29.582Z,101039.00
2023-03-28T02:19:01.620Z,101040.00
2023-03-28T02:21:35.024Z,101043.00
2023-03-28T02:24:09.905Z,101048.00
2023-03-28T02:26:39.845Z,101049.00
2023-03-28T02:29:10.684Z,101047.00
2023-03-28T02:31:41.045Z,101046.00
2023-03-28T02:34:11.924Z,101050.00
2023-03-28T02:36:48.456Z,101053.00
2023-03-28T02:39:48.377Z,101063.00
2023-03-28T02:42:53.705Z,101061.00
2023-03-28T02:46:01.389Z,101065.00
2023-03-28T02:48:40.002Z,101068.00
2023-03-28T02:51:17.794Z,101066.00
2023-03-28T02:53:54.273Z,101075.00
2023-03-28T02:56:32.382Z,101078.00
2023-03-28T02:59:07.348Z,101079.00
2023-03-28T03:01:41.075Z,101080.00
2023-03-28T03:04:11.590Z,101079.00
2023-03-28T03:06:42.531Z,101081.00
2023-03-28T03:09:13.073Z,101085.00
2023-03-28T03:11:45.407Z,101082.00
2023-03-28T03:14:15.213Z,101083.00
2023-03-28T03:16:44.992Z,101094.00
2023-03-28T03:19:14.814Z,101102.00
2023-03-28T03:21:44.564Z,101111.00
2023-03-28T03:24:14.586Z,101104.00
2023-03-28T03:26:46.950Z,101108.00
2023-03-28T03:29:17.222Z,101109.00
2023-03-28T03:31:47.064Z,101118.00
2023-03-28T03:34:16.826Z,101133.00
2023-03-28T03:36:46.825Z,101133.00
2023-03-28T03:39:16.581Z,101132.00
2023-03-28T03:41:48.955Z,101131.00
2023-03-28T03:44:18.766Z,101145.00
2023-03-28T03:46:48.575Z,101137.00
2023-03-28T03:49:18.386Z,101143.00
2023-03-28T03:51:48.167Z,101145.00
2023-03-28T03:54:18.222Z,101154.00
2023-03-28T03:56:50.948Z,101151.00
2023-03-28T03:59:21.085Z,101159.00
2023-03-28T04:01:50.870Z,101156.00
2023-03-28T04:04:21.251Z,101164.00
2023-03-28T04:06:51.102Z,101169.00
2023-03-28T04:09:22.637Z,101178.00
2023-03-28T04:11:55.125Z,101172.00
2023-03-28T04:14:25.208Z,101175.00
2023-03-28T04:16:55.148Z,101180.00
2023-03-28T04:19:25.833Z,101179.00
2023-03-28T04:21:57.627Z,101189.00
2023-03-28T04:24:27.951Z,101176.00
2023-03-28T04:27:00.324Z,101185.00
2023-03-28T04:29:33.414Z,101187.00
2023-03-28T04:32:05.800Z,101198.00
2023-03-28T04:34:39.092Z,101201.00
2023-03-28T04:37:09.312Z,101216.00
2023-03-28T04:39:41.833Z,101201.00
2023-03-28T04:42:14.184Z,101211.00
2023-03-28T04:44:44.525Z,101222.00
2023-03-28T04:47:15.318Z,101218.00
2023-03-28T04:49:45.104Z,101235.00
2023-03-28T04:52:14.948Z,101241.00
2023-03-28T04:54:44.692Z,101242.00
2023-03-28T04:57:17.171Z,101252.00
2023-03-28T04:59:47.154Z,101244.00
2023-03-28T05:02:16.959Z,101257.00
2023-03-28T05:04:47.431Z,101261.00
2023-03-28T05:07:17.458Z,101257.00
2023-03-28T05:09:47.248Z,101266.00
2023-03-28T05:12:19.604Z,101273.00
2023-03-28T05:14:49.362Z,101259.00
2023-03-28T05:17:19.152Z,101266.00
2023-03-28T05:19:48.944Z,101283.00
2023-03-28T05:22:18.752Z,101288.00
2023-03-28T05:24:48.508Z,101284.00
2023-03-28T05:27:20.892Z,101285.00
2023-03-28T05:29:50.660Z,101297.00
2023-03-28T05:32:20.530Z,101297.00
2023-03-28T05:34:50.470Z,101303.00
2023-03-28T05:37:20.252Z,101309.00
2023-03-28T05:39:50.051Z,101310.00
2023-03-28T05:42:22.464Z,101311.00
2023-03-28T05:45:13.263Z,101328.00
2023-03-28T05:47:43.041Z,101320.00
2023-03-28T05:50:13.602Z,101325.00
2023-03-28T05:52:43.409Z,101336.00
2023-03-28T05:55:13.350Z,101344.00
2023-03-28T05:57:45.750Z,101335.00
2023-03-28T06:00:16.908Z,101346.00
2023-03-28T06:02:46.866Z,101346.00
2023-03-28T06:05:16.733Z,101356.00
2023-03-28T06:07:46.904Z,101371.00
2023-03-28T06:10:17.791Z,101356.00
2023-03-28T06:12:50.119Z,101364.00
2023-03-28T06:15:19.918Z,101374.00
2023-03-28T06:17:49.747Z,101372.00
2023-03-28T06:20:19.811Z,101372.00
2023-03-28T06:22:49.899Z,101372.00
2023-03-28T06:25:19.964Z,101390.00
2023-03-28T06:27:52.564Z,101390.00
2023-03-28T06:30:22.460Z,101392.00
2023-03-28T06:32:52.277Z,101394.00
2023-03-28T06:35:23.602Z,101401.00
2023-03-28T06:37:53.409Z,101396.00
2023-03-28T06:40:23.171Z,101406.00
2023-03-28T06:42:55.738Z,101409.00
2023-03-28T06:45:25.556Z,101415.00
2023-03-28T06:47:55.793Z,101417.00
2023-03-28T06:50:25.583Z,101412.00
2023-03-28T06:52:55.358Z,101418.00
2023-03-28T06:55:25.680Z,101418.00
2023-03-28T06:57:58.056Z,101423.00
2023-03-28T07:00:28.018Z,101426.00
2023-03-28T07:02:57.867Z,101415.00
2023-03-28T07:05:27.769Z,101430.00
2023-03-28T07:07:57.732Z,101432.00
2023-03-28T07:10:27.514Z,101432.00
2023-03-28T07:12:59.856Z,101425.00
2023-03-28T07:15:29.678Z,101431.00
2023-03-28T07:17:59.639Z,101431.00
2023-03-28T07:20:30.171Z,101447.00
2023-03-28T07:22:59.964Z,101444.00
2023-03-28T07:25:29.791Z,101461.00
2023-03-28T07:28:02.155Z,101459.00
2023-03-28T07:30:32.228Z,101462.00
2023-03-28T07:33:13.728Z,101466.00
2023-03-28T07:35:47.201Z,101462.00
2023-03-28T07:38:17.076Z,101462.00
2023-03-28T07:40:47.084Z,101462.00
2023-03-28T07:43:19.479Z,101476.00
2023-03-28T07:45:49.336Z,101475.00
2023-03-28T07:48:19.101Z,101484.00
2023-03-28T07:50:49.832Z,101485.00
2023-03-28T07:53:19.698Z,101501.00
2023-03-28T07:55:55.006Z,101499.00
2023-03-28T07:58:28.227Z,101492.00
2023-03-28T08:00:58.408Z,101502.00
2023-03-28T08:03:28.580Z,101506.00
2023-03-28T08:05:59.347Z,101508.00
2023-03-28T08:08:29.149Z,101504.00
2023-03-28T08:10:59.137Z,101505.00
2023-03-28T08:13:31.694Z,101513.00
2023-03-28T08:16:01.886Z,101517.00
2023-03-28T08:18:31.917Z,101519.00
2023-03-28T08:21:03.119Z,101515.00
2023-03-28T08:23:33.339Z,101522.00
2023-03-28T08:26:05.153Z,101517.00
2023-03-28T08:28:39.163Z,101522.00
2023-03-28T08:31:14.468Z,101526.00
2023-03-28T08:33:44.652Z,101533.00
2023-03-28T08:36:15.952Z,101524.00
2023-03-28T08:38:46.711Z,101525.00
2023-03-28T08:41:27.876Z,101530.00
2023-03-28T08:44:08.960Z,101538.00
2023-03-28T08:46:39.373Z,101525.00
2023-03-28T08:49:12.575Z,101542.00
2023-03-28T08:51:44.113Z,101532.00
2023-03-28T08:54:17.835Z,101533.00
2023-03-28T08:56:49.856Z,101537.00
2023-03-28T08:59:24.700Z,101541.00
2023-03-28T09:01:54.507Z,101554.00
2023-03-28T09:04:30.256Z,101546.00
2023-03-28T09:07:03.142Z,101550.00
2023-03-28T09:09:43.676Z,101562.00
2023-03-28T09:12:27.694Z,101558.00
2023-03-28T09:15:17.893Z,101568.00
2023-03-28T09:17:55.922Z,101559.00
2023-03-28T09:20:31.739Z,101564.00
2023-03-28T09:23:23.393Z,101567.00
2023-03-28T09:26:01.504Z,101578.00
2023-03-28T09:28:39.148Z,101578.00
2023-03-28T09:31:14.210Z,101571.00
2023-03-28T09:33:47.278Z,101589.00
2023-03-28T09:36:20.486Z,101590.00
2023-03-28T09:38:52.303Z,101603.00
2023-03-28T09:41:25.707Z,101597.00
2023-03-28T09:43:59.152Z,101592.00
2023-03-28T09:46:33.522Z,101589.00
2023-03-28T09:49:03.424Z,101590.00
2023-03-28T09:51:33.469Z,101598.00
2023-03-28T09:54:07.912Z,101609.00
2023-03-28T09:56:39.664Z,101607.00
2023-03-28T09:59:14.398Z,101604.00
2023-03-28T10:01:49.332Z,101602.00
2023-03-28T10:04:21.463Z,101608.00
2023-03-28T10:06:51.276Z,101609.00
2023-03-28T10:09:22.546Z,101598.00
2023-03-28T10:11:55.009Z,101614.00
2023-03-28T10:14:38.496Z,101605.00
2023-03-28T10:17:15.420Z,101628.00
2023-03-28T10:19:47.103Z,101623.00
2023-03-28T10:22:19.230Z,101624.00
2023-03-28T10:24:49.744Z,101599.00
2023-03-28T10:27:24.338Z,101619.00
2023-03-28T10:29:55.585Z,101620.00
2023-03-28T10:32:32.660Z,101639.00
2023-03-28T10:35:04.140Z,101635.00
2023-03-28T10:37:35.180Z,101646.00
2023-03-28T10:40:10.991Z,101646.00
2023-03-28T10:42:45.351Z,101641.00
2023-03-28T10:45:24.042Z,101655.00
2023-03-28T10:47:59.602Z,101655.00
2023-03-28T10:50:35.431Z,101653.00
2023-03-28T10:53:15.507Z,101662.00
2023-03-28T10:55:58.803Z,101647.00
2023-03-28T10:58:34.846Z,101642.00
2023-03-28T11:01:08.977Z,101641.00
2023-03-28T11:03:51.913Z,101646.00
2023-03-28T11:06:24.720Z,101646.00
2023-03-28T11:09:02.358Z,101648.00
2023-03-28T11:11:45.539Z,101653.00
2023-03-28T11:14:23.297Z,101664.00
2023-03-28T11:17:00.666Z,101660.00
2023-03-28T11:19:44.043Z,101664.00
2023-03-28T11:22:23.771Z,101662.00
2023-03-28T11:24:58.694Z,101658.00
2023-03-28T11:27:31.592Z,101659.00
2023-03-28T11:30:05.580Z,101658.00
2023-03-28T11:32:40.902Z,101648.00
2023-03-28T11:35:17.856Z,101657.00
2023-03-28T11:38:01.175Z,101663.00
2023-03-28T11:40:33.725Z,101672.00
2023-03-28T11:43:06.585Z,101676.00
2023-03-28T11:45:51.088Z,101667.00
2023-03-28T11:48:25.642Z,101673.00
2023-03-28T11:51:04.247Z,101668.00
2023-03-28T11:53:36.772Z,101660.00
2023-03-28T11:56:11.952Z,101668.00
2023-03-28T11:58:44.816Z,101654.00
2023-03-28T12:01:18.894Z,101650.00
2023-03-28T12:03:59.188Z,101649.00
2023-03-28T12:06:35.875Z,101654.00
2023-03-28T12:09:11.329Z,101647.00
2023-03-28T12:11:43.911Z,101647.00
2023-03-28T12:14:46.330Z,101640.00
2023-03-28T12:17:20.107Z,101653.00
2023-03-28T12:19:51.222Z,101661.00
2023-03-28T12:22:27.462Z,101654.00
2023-03-28T12:25:03.643Z,101656.00
2023-03-28T12:27:42.277Z,101639.00
2023-03-28T12:30:21.344Z,101641.00
2023-03-28T12:32:55.692Z,101652.00
2023-03-28T12:35:29.339Z,101657.00
2023-03-28T12:38:14.447Z,101650.00
2023-03-28T12:41:01.442Z,101655.00
2023-03-28T12:43:36.823Z,101656.00
2023-03-28T12:46:08.537Z,101658.00
2023-03-28T12:48:41.587Z,101668.00
2023-03-28T12:51:16.706Z,101662.00
2023-03-28T12:54:03.984Z,101667.00
2023-03-28T12:56:34.356Z,101677.00
2023-03-28T12:59:04.156Z,101680.00
2023-03-28T13:01:48.709Z,101670.00
2023-03-28T13:04:30.425Z,101674.00
2023-03-28T13:07:08.184Z,101662.00
2023-03-28T13:09:47.479Z,101662.00
2023-03-28T13:12:48.760Z,101669.00
2023-03-28T13:15:30.322Z,101667.00
2023-03-28T13:18:28.068Z,101654.00
2023-03-28T13:20:57.962Z,101665.00
2023-03-28T13:23:33.661Z,101667.00
2023-03-28T13:26:07.925Z,101668.00
2023-03-28T13:28:44.675Z,101663.00
2023-03-28T13:31:22.399Z,101664.00
2023-03-28T13:33:58.715Z,101659.00
2023-03-28T13:36:31.151Z,101658.00
2023-03-28T13:39:21.889Z,101654.00
2023-03-28T13:42:03.908Z,101665.00
2023-03-28T13:44:39.381Z,101654.00
2023-03-28T13:47:09.970Z,101664.00
2023-03-28T13:49:44.402Z,101660.00
2023-03-28T13:52:17.959Z,101666.00
2023-03-28T13:54:54.363Z,101656.00
2023-03-28T13:57:28.698Z,101662.00
2023-03-28T13:59:59.937Z,101662.00
2023-03-28T14:02:40.145Z,101656.00
2023-03-28T14:07:31.604Z,101654.00
2023-03-28T14:10:01.590Z,101649.00
2023-03-28T14:12:32.538Z,101652.00
2023-03-28T14:15:03.919Z,101647.00
2023-03-28T14:17:36.605Z,101651.00
2023-03-28T14:20:08.992Z,101654.00
2023-03-28T14:22:53.306Z,101650.00
2023-03-28T14:25:30.806Z,101644.00
2023-03-28T14:28:09.337Z,101646.00
2023-03-28T14:30:43.904Z,101646.00
2023-03-28T14:33:23.158Z,101642.00
2023-03-28T14:36:00.247Z,101644.00
2023-03-28T14:38:35.368Z,101649.00
2023-03-28T14:41:10.797Z,101655.00
2023-03-28T14:43:40.756Z,101648.00
2023-03-28T14:46:12.793Z,101645.00
2023-03-28T14:48:44.885Z,101650.00
2023-03-28T14:51:16.526Z,101651.00
2023-03-28T14:53:50.148Z,101649.00
2023-03-28T14:56:24.958Z,101647.00
2023-03-28T14:58:57.493Z,101640.00
2023-03-28T15:02:26.494Z,101646.00
2023-03-28T15:04:58.329Z,101652.00
2023-03-28T15:07:31.627Z,101648.00
2023-03-28T15:10:11.300Z,101648.00
2023-03-28T15:12:49.258Z,101655.00
2023-03-28T15:15:23.950Z,101656.00
2023-03-28T15:18:00.477Z,101645.00
2023-03-28T15:20:34.793Z,101637.00
2023-03-28T15:23:09.809Z,101638.00
2023-03-28T15:25:39.928Z,101639.00
2023-03-28T15:28:12.913Z,101649.00
2023-03-28T15:30:46.648Z,101635.00
2023-03-28T15:33:23.295Z,101641.00
2023-03-28T15:35:53.624Z,101642.00
2023-03-28T15:38:25.895Z,101646.00
2023-03-28T15:41:15.007Z,101647.00
2023-03-28T15:44:02.404Z,101639.00
2023-03-28T15:46:34.672Z,101645.00
2023-03-28T15:49:09.758Z,101633.00
2023-03-28T15:51:52.782Z,101643.00
2023-03-28T15:54:30.754Z,101633.00
2023-03-28T15:57:04.536Z,101644.00
2023-03-28T15:59:39.905Z,101639.00
2023-03-28T16:02:41.009Z,101633.00
2023-03-28T16:05:32.178Z,101637.00
2023-03-28T16:08:02.239Z,101634.00
2023-03-28T16:10:33.200Z,101636.00
2023-03-28T16:13:03.208Z,101638.00
2023-03-28T16:15:33.513Z,101634.00
2023-03-28T16:18:03.470Z,101636.00
2023-03-28T16:20:36.060Z,101636.00
2023-03-28T16:23:07.220Z,101642.00
2023-03-28T16:25:37.429Z,101644.00
2023-03-28T16:28:07.969Z,101648.00
2023-03-28T16:30:41.725Z,101643.00
2023-03-28T16:33:11.778Z,101647.00
2023-03-28T16:35:44.399Z,101646.00
2023-03-28T16:38:14.742Z,101646.00
2023-03-28T16:40:45.987Z,101641.00
2023-03-28T16:43:16.675Z,101639.00
2023-03-28T16:45:50.074Z,101637.00
2023-03-28T16:48:20.221Z,101639.00
2023-03-28T16:50:58.964Z,101643.00
2023-03-28T16:53:29.124Z,101644.00
2023-03-28T16:55:59.261Z,101643.00
2023-03-28T16:58:29.875Z,101634.00
2023-03-28T17:01:00.200Z,101633.00
2023-03-28T17:03:30.384Z,101638.00
2023-03-28T17:06:09.103Z,101638.00
2023-03-28T17:08:39.110Z,101644.00
2023-03-28T17:11:11.216Z,101634.00
2023-03-28T17:13:43.126Z,101640.00
2023-03-28T17:16:13.644Z,101642.00
2023-03-28T17:18:43.641Z,101641.00
2023-03-28T17:21:18.446Z,101632.00
2023-03-28T17:23:49.347Z,101637.00
2023-03-28T17:26:20.412Z,101637.00
2023-03-28T17:28:51.813Z,101629.00
2023-03-28T17:31:23.187Z,101624.00
2023-03-28T17:33:53.437Z,101630.00
2023-03-28T17:36:28.285Z,101623.00
2023-03-28T17:39:00.255Z,101624.00
2023-03-28T17:41:31.081Z,101627.00
2023-03-28T17:44:01.980Z,101621.00
2023-03-28T17:46:32.067Z,101617.00
2023-03-28T17:49:02.068Z,101628.00
2023-03-28T17:51:34.726Z,101628.00
2023-03-28T17:54:06.940Z,101624.00
2023-03-28T17:56:37.123Z,101623.00
2023-03-28T17:59:07.559Z,101630.00
2023-03-28T18:01:37.557Z,101634.00
2023-03-28T18:04:08.001Z,101630.00
2023-03-28T18:06:40.729Z,101633.00
2023-03-28T18:09:10.914Z,101629.00
2023-03-28T18:11:41.508Z,101631.00
2023-03-28T18:14:12.580Z,101636.00
2023-03-28T18:16:44.714Z,101627.00
2023-03-28T18:19:18.432Z,101626.00
2023-03-28T18:21:51.188Z,101624.00
2023-03-28T18:24:21.516Z,101628.00
2023-03-28T18:26:51.499Z,101624.00
2023-03-28T18:29:21.787Z,101625.00
2023-03-28T18:31:52.374Z,101630.00
2023-03-28T18:34:22.581Z,101626.00
2023-03-28T18:36:55.772Z,101632.00
2023-03-28T18:39:26.090Z,101621.00
2023-03-28T18:41:56.091Z,101631.00
2023-03-28T18:44:26.070Z,101630.00
2023-03-28T18:46:58.449Z,101627.00
2023-03-28T18:49:28.715Z,101622.00
2023-03-28T18:52:04.444Z,101619.00
2023-03-28T18:54:35.531Z,101627.00
2023-03-28T18:57:06.272Z,101627.00
2023-03-28T18:59:36.290Z,101634.00
2023-03-28T19:02:06.548Z,101625.00
2023-03-28T19:04:36.666Z,101624.00
2023-03-28T19:07:10.168Z,101631.00
2023-03-28T19:09:40.160Z,101627.00
2023-03-28T19:12:10.223Z,101628.00
2023-03-28T19:14:40.678Z,101620.00
2023-03-28T19:17:10.773Z,101626.00
2023-03-28T19:19:40.744Z,101627.00
2023-03-28T19:22:13.379Z,101627.00
2023-03-28T19:24:43.349Z,101626.00
2023-03-28T19:27:13.307Z,101619.00
2023-03-28T19:29:43.253Z,101622.00
2023-03-28T19:32:13.205Z,101622.00
2023-03-28T19:34:43.208Z,101628.00
2023-03-28T19:37:15.916Z,101625.00
2023-03-28T19:39:45.961Z,101629.00
2023-03-28T19:42:18.174Z,101628.00
2023-03-28T19:44:48.159Z,101634.00
2023-03-28T19:47:18.106Z,101629.00
2023-03-28T19:49:49.369Z,101622.00
2023-03-28T19:52:21.899Z,101630.00
2023-03-28T19:54:51.878Z,101628.00
2023-03-28T19:57:21.874Z,101627.00
2023-03-28T19:59:51.855Z,101618.00
2023-03-28T20:02:21.847Z,101615.00
2023-03-28T20:04:51.857Z,101623.00
2023-03-28T20:07:24.831Z,101626.00
2023-03-28T20:09:54.784Z,101620.00
2023-03-28T20:12:24.751Z,101625.00
2023-03-28T20:14:56.842Z,101623.00
2023-03-28T20:17:27.176Z,101617.00
2023-03-28T20:19:57.165Z,101613.00
2023-03-28T20:22:29.923Z,101617.00
2023-03-28T20:24:59.869Z,101612.00
2023-03-28T20:27:32.143Z,101612.00
2023-03-28T20:30:02.182Z,101612.00
2023-03-28T20:32:32.178Z,101608.00
2023-03-28T20:35:02.370Z,101603.00
2023-03-28T20:37:34.955Z,101605.00
2023-03-28T20:40:10.921Z,101605.00
2023-03-28T20:42:42.335Z,101603.00
2023-03-28T20:45:22.412Z,101591.00
2023-03-28T20:47:56.378Z,101594.00
2023-03-28T20:50:26.981Z,101585.00
2023-03-28T20:52:59.508Z,101584.00
2023-03-28T20:55:30.154Z,101590.00
2023-03-28T20:58:00.769Z,101577.00
2023-03-28T21:00:32.262Z,101582.00
2023-03-28T21:03:03.848Z,101582.00
2023-03-28T21:05:34.039Z,101579.00
2023-03-28T21:08:08.502Z,101576.00
2023-03-28T21:10:40.212Z,101578.00
2023-03-28T21:13:10.163Z,101578.00
2023-03-28T21:15:40.139Z,101576.00
2023-03-28T21:18:12.490Z,101571.00
2023-03-28T21:20:42.530Z,101569.00
2023-03-28T21:23:16.264Z,101565.00
2023-03-28T21:25:48.065Z,101566.00
2023-03-28T21:28:18.006Z,101571.00
2023-03-28T21:30:48.016Z,101560.00
2023-03-28T21:33:17.953Z,101565.00
2023-03-28T21:35:47.945Z,101562.00
2023-03-28T21:38:20.994Z,101563.00
2023-03-28T21:40:51.381Z,101573.00
2023-03-28T21:43:21.363Z,101561.00
2023-03-28T21:45:52.506Z,101557.00
2023-03-28T21:48:22.743Z,101558.00
2023-03-28T21:50:53.916Z,101561.00
2023-03-28T21:53:26.424Z,101555.00
2023-03-28T21:55:56.931Z,101553.00
2023-03-28T21:58:27.822Z,101550.00
2023-03-28T22:00:58.613Z,101554.00
2023-03-28T22:03:29.289Z,101553.00
2023-03-28T22:05:59.360Z,101558.00
2023-03-28T22:08:31.939Z,101547.00
2023-03-28T22:11:04.587Z,101556.00
2023-03-28T22:13:34.768Z,101547.00
2023-03-28T22:16:04.733Z,101548.00
2023-03-28T22:18:34.716Z,101539.00
2023-03-28T22:21:04.739Z,101544.00
2023-03-28T22:23:37.418Z,101529.00
2023-03-28T22:26:10.351Z,101535.00
2023-03-28T22:28:40.310Z,101536.00
2023-03-28T22:31:10.610Z,101539.00
2023-03-28T22:33:40.681Z,101534.00
2023-03-28T22:36:13.128Z,101536.00
2023-03-28T22:38:45.725Z,101536.00
2023-03-28T22:41:15.945Z,101526.00
2023-03-28T22:43:47.157Z,101522.00
2023-03-28T22:46:17.658Z,101540.00
2023-03-28T22:48:54.396Z,101532.00
2023-03-28T22:51:28.349Z,101524.00
2023-03-28T22:54:03.303Z,101524.00
2023-03-28T22:56:33.792Z,101532.00
2023-03-28T22:59:04.948Z,101520.00
2023-03-28T23:01:35.429Z,101521.00
2023-03-28T23:04:05.402Z,101518.00
2023-03-28T23:06:38.849Z,101517.00
2023-03-28T23:09:12.226Z,101510.00
2023-03-28T23:11:42.728Z,101507.00
2023-03-28T23:14:12.940Z,101511.00
2023-03-28T23:16:43.730Z,101509.00
2023-03-28T23:19:13.795Z,101509.00
2023-03-28T23:21:44.156Z,101502.00
2023-03-28T23:24:16.810Z,101504.00
2023-03-28T23:26:46.805Z,101495.00
2023-03-28T23:29:16.760Z,101514.00
2023-03-28T23:31:46.737Z,101497.00
2023-03-28T23:34:17.039Z,101508.00
2023-03-28T23:36:49.535Z,101494.00
2023-03-28T23:39:22.142Z,101504.00
2023-03-28T23:41:52.101Z,101508.00
2023-03-28T23:44:22.092Z,101501.00
2023-03-28T23:46:53.165Z,101491.00
2023-03-28T23:49:23.097Z,101491.00
2023-03-28T23:51:53.320Z,101491.00
2023-03-28T23:54:26.002Z,101490.00
2023-03-28T23:56:55.968Z,101485.00
2023-03-28T23:59:26.153Z,101486.00
